Fuerte Quemado, Argentina
Current Conditions -  °F | °C
As of 6:00 PM on Thursday 23 Oct 2014 (Local Time) from SANT Reporting Station
Scattered Clouds Scattered Clouds  
Wind Chill: 81°   Ceiling: Unl
Heat Index: 83°   Visibility: 6mi
Dew Point: 68°   Wind: 0mph
Humidity: 65%   Direction: NA
Pressure: 29.88"   Gusts: NA
Location:  26.4°S, 66°W
Report Text: SANT 232100Z 00000KT 9999 FEW050CB SCT10027/20 Q1012
Loading
Personal Weather Stations






























Interactive Weather Map
Tropical Storm Tracking
New forecast layout! Learn more

10-Day Weather Forecast

Advertisements
Track Severe Weather on mobile